sensor_id;sensor_type;location;lat;lon;timestamp;P1;durP1;ratioP1;P2;durP2;ratioP2
6209;SDS011;3138;52.550;13.148;2023-05-29T00:00:46;14.13;;;6.50;;
6209;SDS011;3138;52.550;13.148;2023-05-29T00:03:13;20.07;;;6.20;;
6209;SDS011;3138;52.550;13.148;2023-05-29T00:05:39;16.07;;;6.20;;
6209;SDS011;3138;52.550;13.148;2023-05-29T00:08:06;16.87;;;6.80;;
6209;SDS011;3138;52.550;13.148;2023-05-29T00:10:35;15.13;;;6.23;;
6209;SDS011;3138;52.550;13.148;2023-05-29T00:13:02;30.60;;;9.40;;
6209;SDS011;3138;52.550;13.148;2023-05-29T00:15:29;26.93;;;9.80;;
6209;SDS011;3138;52.550;13.148;2023-05-29T00:17:56;19.20;;;7.70;;
6209;SDS011;3138;52.550;13.148;2023-05-29T00:20:23;21.03;;;7.63;;
6209;SDS011;3138;52.550;13.148;2023-05-29T00:22:50;22.07;;;7.30;;
6209;SDS011;3138;52.550;13.148;2023-05-29T00:25:17;19.10;;;7.20;;
6209;SDS011;3138;52.550;13.148;2023-05-29T00:27:45;28.13;;;7.77;;
6209;SDS011;3138;52.550;13.148;2023-05-29T00:30:12;17.43;;;6.37;;
6209;SDS011;3138;52.550;13.148;2023-05-29T00:32:39;12.93;;;5.93;;
6209;SDS011;3138;52.550;13.148;2023-05-29T00:35:06;26.23;;;6.57;;
6209;SDS011;3138;52.550;13.148;2023-05-29T00:37:34;11.17;;;5.00;;
6209;SDS011;3138;52.550;13.148;2023-05-29T00:40:01;25.67;;;6.17;;
6209;SDS011;3138;52.550;13.148;2023-05-29T00:42:29;17.20;;;5.80;;
6209;SDS011;3138;52.550;13.148;2023-05-29T00:44:57;23.67;;;6.33;;
6209;SDS011;3138;52.550;13.148;2023-05-29T00:47:24;15.37;;;6.20;;
6209;SDS011;3138;52.550;13.148;2023-05-29T00:49:51;12.83;;;5.90;;
6209;SDS011;3138;52.550;13.148;2023-05-29T00:52:19;20.30;;;6.40;;
6209;SDS011;3138;52.550;13.148;2023-05-29T00:54:46;21.10;;;5.80;;
6209;SDS011;3138;52.550;13.148;2023-05-29T00:57:13;18.03;;;6.30;;
6209;SDS011;3138;52.550;13.148;2023-05-29T00:59:42;16.33;;;5.40;;
6209;SDS011;3138;52.550;13.148;2023-05-29T01:02:11;15.20;;;5.30;;
6209;SDS011;3138;52.550;13.148;2023-05-29T01:04:41;16.87;;;6.57;;
6209;SDS011;3138;52.550;13.148;2023-05-29T01:07:09;23.80;;;6.60;;
6209;SDS011;3138;52.550;13.148;2023-05-29T01:09:37;10.80;;;6.20;;
6209;SDS011;3138;52.550;13.148;2023-05-29T01:12:08;16.70;;;5.60;;
6209;SDS011;3138;52.550;13.148;2023-05-29T01:14:45;6.37;;;4.60;;
6209;SDS011;3138;52.550;13.148;2023-05-29T01:17:21;15.23;;;4.80;;
6209;SDS011;3138;52.550;13.148;2023-05-29T01:20:08;11.37;;;5.83;;
6209;SDS011;3138;52.550;13.148;2023-05-29T01:22:49;19.57;;;6.80;;
6209;SDS011;3138;52.550;13.148;2023-05-29T01:25:29;22.13;;;5.60;;
6209;SDS011;3138;52.550;13.148;2023-05-29T01:28:11;17.50;;;6.67;;
6209;SDS011;3138;52.550;13.148;2023-05-29T01:30:39;18.80;;;6.37;;
6209;SDS011;3138;52.550;13.148;2023-05-29T01:33:06;12.60;;;5.33;;
6209;SDS011;3138;52.550;13.148;2023-05-29T01:35:33;19.60;;;5.40;;
6209;SDS011;3138;52.550;13.148;2023-05-29T01:38:00;16.83;;;6.30;;
6209;SDS011;3138;52.550;13.148;2023-05-29T01:40:27;22.87;;;6.60;;
6209;SDS011;3138;52.550;13.148;2023-05-29T01:42:54;12.23;;;5.10;;
6209;SDS011;3138;52.550;13.148;2023-05-29T01:45:23;15.97;;;6.80;;
6209;SDS011;3138;52.550;13.148;2023-05-29T01:47:50;17.60;;;6.17;;
6209;SDS011;3138;52.550;13.148;2023-05-29T01:50:17;20.10;;;6.10;;
6209;SDS011;3138;52.550;13.148;2023-05-29T01:52:45;16.37;;;6.50;;
6209;SDS011;3138;52.550;13.148;2023-05-29T01:55:12;25.73;;;6.97;;
6209;SDS011;3138;52.550;13.148;2023-05-29T01:57:38;14.00;;;5.40;;
6209;SDS011;3138;52.550;13.148;2023-05-29T02:00:07;15.77;;;7.77;;
6209;SDS011;3138;52.550;13.148;2023-05-29T02:02:37;13.67;;;6.10;;
6209;SDS011;3138;52.550;13.148;2023-05-29T02:05:05;24.87;;;7.00;;
6209;SDS011;3138;52.550;13.148;2023-05-29T02:07:34;16.67;;;6.77;;
6209;SDS011;3138;52.550;13.148;2023-05-29T02:10:01;12.83;;;5.90;;
6209;SDS011;3138;52.550;13.148;2023-05-29T02:12:28;16.33;;;6.30;;
6209;SDS011;3138;52.550;13.148;2023-05-29T02:14:55;15.03;;;6.37;;
6209;SDS011;3138;52.550;13.148;2023-05-29T02:17:22;20.00;;;6.90;;
6209;SDS011;3138;52.550;13.148;2023-05-29T02:19:51;16.10;;;6.20;;
6209;SDS011;3138;52.550;13.148;2023-05-29T02:22:18;14.13;;;6.20;;
6209;SDS011;3138;52.550;13.148;2023-05-29T02:24:45;12.13;;;6.00;;
6209;SDS011;3138;52.550;13.148;2023-05-29T02:27:11;18.17;;;6.27;;
6209;SDS011;3138;52.550;13.148;2023-05-29T02:29:38;19.20;;;6.47;;
6209;SDS011;3138;52.550;13.148;2023-05-29T02:32:05;11.13;;;6.30;;
6209;SDS011;3138;52.550;13.148;2023-05-29T02:34:32;11.73;;;5.90;;
6209;SDS011;3138;52.550;13.148;2023-05-29T02:37:00;11.90;;;5.97;;
6209;SDS011;3138;52.550;13.148;2023-05-29T02:39:27;18.70;;;6.37;;
6209;SDS011;3138;52.550;13.148;2023-05-29T02:41:54;19.10;;;6.43;;
6209;SDS011;3138;52.550;13.148;2023-05-29T02:44:21;17.77;;;6.83;;
6209;SDS011;3138;52.550;13.148;2023-05-29T02:46:48;16.80;;;6.07;;
6209;SDS011;3138;52.550;13.148;2023-05-29T02:49:15;13.50;;;5.53;;
6209;SDS011;3138;52.550;13.148;2023-05-29T02:51:41;17.80;;;6.80;;
6209;SDS011;3138;52.550;13.148;2023-05-29T02:54:10;19.23;;;7.20;;
6209;SDS011;3138;52.550;13.148;2023-05-29T02:56:37;36.73;;;7.33;;
6209;SDS011;3138;52.550;13.148;2023-05-29T02:59:04;14.93;;;6.73;;
6209;SDS011;3138;52.550;13.148;2023-05-29T03:01:31;12.77;;;6.67;;
6209;SDS011;3138;52.550;13.148;2023-05-29T03:03:59;16.57;;;7.00;;
6209;SDS011;3138;52.550;13.148;2023-05-29T03:06:25;24.57;;;6.53;;
6209;SDS011;3138;52.550;13.148;2023-05-29T03:08:52;20.80;;;7.40;;
6209;SDS011;3138;52.550;13.148;2023-05-29T03:11:20;19.50;;;6.80;;
6209;SDS011;3138;52.550;13.148;2023-05-29T03:13:48;26.13;;;6.90;;
6209;SDS011;3138;52.550;13.148;2023-05-29T03:16:15;17.70;;;6.87;;
6209;SDS011;3138;52.550;13.148;2023-05-29T03:18:42;37.80;;;8.30;;
6209;SDS011;3138;52.550;13.148;2023-05-29T03:21:09;15.57;;;7.20;;
6209;SDS011;3138;52.550;13.148;2023-05-29T03:23:36;17.80;;;6.10;;
6209;SDS011;3138;52.550;13.148;2023-05-29T03:26:03;12.03;;;6.60;;
6209;SDS011;3138;52.550;13.148;2023-05-29T03:28:32;21.47;;;7.63;;
6209;SDS011;3138;52.550;13.148;2023-05-29T03:30:59;35.97;;;8.30;;
6209;SDS011;3138;52.550;13.148;2023-05-29T03:33:26;15.63;;;7.50;;
6209;SDS011;3138;52.550;13.148;2023-05-29T03:35:53;14.90;;;6.90;;
6209;SDS011;3138;52.550;13.148;2023-05-29T03:38:20;14.70;;;7.50;;
6209;SDS011;3138;52.550;13.148;2023-05-29T03:40:47;14.63;;;6.97;;
6209;SDS011;3138;52.550;13.148;2023-05-29T03:43:14;14.47;;;6.47;;
6209;SDS011;3138;52.550;13.148;2023-05-29T03:45:42;24.70;;;7.20;;
6209;SDS011;3138;52.550;13.148;2023-05-29T03:48:09;23.73;;;6.87;;
6209;SDS011;3138;52.550;13.148;2023-05-29T03:50:35;16.57;;;6.73;;
6209;SDS011;3138;52.550;13.148;2023-05-29T03:53:02;17.70;;;7.53;;
6209;SDS011;3138;52.550;13.148;2023-05-29T03:55:29;12.83;;;6.03;;
6209;SDS011;3138;52.550;13.148;2023-05-29T03:57:58;14.33;;;7.40;;
6209;SDS011;3138;52.550;13.148;2023-05-29T04:00:25;20.07;;;6.93;;
6209;SDS011;3138;52.550;13.148;2023-05-29T04:02:54;21.17;;;7.70;;
6209;SDS011;3138;52.550;13.148;2023-05-29T04:05:21;20.50;;;7.20;;
6209;SDS011;3138;52.550;13.148;2023-05-29T04:07:48;24.90;;;7.33;;
6209;SDS011;3138;52.550;13.148;2023-05-29T04:10:15;11.40;;;6.83;;
6209;SDS011;3138;52.550;13.148;2023-05-29T04:12:42;12.30;;;6.40;;
6209;SDS011;3138;52.550;13.148;2023-05-29T04:15:09;16.37;;;7.03;;
6209;SDS011;3138;52.550;13.148;2023-05-29T04:17:36;22.03;;;6.77;;
6209;SDS011;3138;52.550;13.148;2023-05-29T04:20:04;13.80;;;6.47;;
6209;SDS011;3138;52.550;13.148;2023-05-29T04:22:34;17.60;;;7.00;;
6209;SDS011;3138;52.550;13.148;2023-05-29T04:25:01;21.33;;;7.27;;
6209;SDS011;3138;52.550;13.148;2023-05-29T04:27:28;14.40;;;7.27;;
6209;SDS011;3138;52.550;13.148;2023-05-29T04:29:56;18.10;;;6.53;;
6209;SDS011;3138;52.550;13.148;2023-05-29T04:32:23;19.97;;;6.13;;
6209;SDS011;3138;52.550;13.148;2023-05-29T04:34:51;16.50;;;7.53;;
6209;SDS011;3138;52.550;13.148;2023-05-29T04:37:19;14.00;;;7.00;;
6209;SDS011;3138;52.550;13.148;2023-05-29T04:39:54;16.63;;;6.53;;
6209;SDS011;3138;52.550;13.148;2023-05-29T04:42:21;19.47;;;7.50;;
6209;SDS011;3138;52.550;13.148;2023-05-29T04:44:50;13.60;;;6.43;;
6209;SDS011;3138;52.550;13.148;2023-05-29T04:47:17;23.13;;;7.30;;
6209;SDS011;3138;52.550;13.148;2023-05-29T04:49:44;11.77;;;6.40;;
6209;SDS011;3138;52.550;13.148;2023-05-29T04:52:13;16.00;;;6.37;;
6209;SDS011;3138;52.550;13.148;2023-05-29T04:54:42;20.60;;;6.50;;
6209;SDS011;3138;52.550;13.148;2023-05-29T04:57:09;12.40;;;6.10;;
6209;SDS011;3138;52.550;13.148;2023-05-29T04:59:36;20.93;;;7.50;;
6209;SDS011;3138;52.550;13.148;2023-05-29T05:02:04;11.33;;;5.63;;
6209;SDS011;3138;52.550;13.148;2023-05-29T05:04:31;14.37;;;6.20;;
6209;SDS011;3138;52.550;13.148;2023-05-29T05:06:58;21.63;;;6.27;;
6209;SDS011;3138;52.550;13.148;2023-05-29T05:09:25;11.63;;;6.00;;
6209;SDS011;3138;52.550;13.148;2023-05-29T05:11:53;17.70;;;6.20;;
6209;SDS011;3138;52.550;13.148;2023-05-29T05:14:21;22.30;;;6.53;;
6209;SDS011;3138;52.550;13.148;2023-05-29T05:16:48;20.87;;;6.50;;
6209;SDS011;3138;52.550;13.148;2023-05-29T05:19:16;11.10;;;6.17;;
6209;SDS011;3138;52.550;13.148;2023-05-29T05:21:43;12.43;;;6.37;;
6209;SDS011;3138;52.550;13.148;2023-05-29T05:24:10;13.60;;;5.07;;
6209;SDS011;3138;52.550;13.148;2023-05-29T05:26:37;9.43;;;6.43;;
6209;SDS011;3138;52.550;13.148;2023-05-29T05:29:05;12.80;;;6.80;;
6209;SDS011;3138;52.550;13.148;2023-05-29T05:31:32;19.47;;;6.77;;
6209;SDS011;3138;52.550;13.148;2023-05-29T05:33:59;17.13;;;6.57;;
6209;SDS011;3138;52.550;13.148;2023-05-29T05:36:26;14.30;;;5.30;;
6209;SDS011;3138;52.550;13.148;2023-05-29T05:38:53;12.37;;;6.00;;
6209;SDS011;3138;52.550;13.148;2023-05-29T05:41:19;10.57;;;5.77;;
6209;SDS011;3138;52.550;13.148;2023-05-29T05:43:47;10.30;;;4.43;;
6209;SDS011;3138;52.550;13.148;2023-05-29T05:46:15;18.00;;;6.17;;
6209;SDS011;3138;52.550;13.148;2023-05-29T05:48:42;15.23;;;5.17;;
6209;SDS011;3138;52.550;13.148;2023-05-29T05:51:09;12.23;;;4.90;;
6209;SDS011;3138;52.550;13.148;2023-05-29T05:53:37;8.17;;;4.80;;
6209;SDS011;3138;52.550;13.148;2023-05-29T05:56:04;6.43;;;4.83;;
6209;SDS011;3138;52.550;13.148;2023-05-29T05:58:30;9.30;;;5.10;;
6209;SDS011;3138;52.550;13.148;2023-05-29T06:00:57;7.63;;;4.17;;
6209;SDS011;3138;52.550;13.148;2023-05-29T06:03:27;14.77;;;4.40;;
6209;SDS011;3138;52.550;13.148;2023-05-29T06:05:54;6.93;;;4.63;;
6209;SDS011;3138;52.550;13.148;2023-05-29T06:08:21;9.33;;;4.80;;
6209;SDS011;3138;52.550;13.148;2023-05-29T06:10:48;9.90;;;4.30;;
6209;SDS011;3138;52.550;13.148;2023-05-29T06:13:15;12.00;;;5.50;;
6209;SDS011;3138;52.550;13.148;2023-05-29T06:15:42;11.40;;;5.07;;
6209;SDS011;3138;52.550;13.148;2023-05-29T06:18:09;10.50;;;4.83;;
6209;SDS011;3138;52.550;13.148;2023-05-29T06:20:38;8.13;;;4.03;;
6209;SDS011;3138;52.550;13.148;2023-05-29T06:23:05;11.40;;;4.20;;
6209;SDS011;3138;52.550;13.148;2023-05-29T06:25:32;6.73;;;3.80;;
6209;SDS011;3138;52.550;13.148;2023-05-29T06:27:58;7.53;;;4.50;;
6209;SDS011;3138;52.550;13.148;2023-05-29T06:30:25;3.63;;;3.23;;
6209;SDS011;3138;52.550;13.148;2023-05-29T06:32:52;7.60;;;4.17;;
6209;SDS011;3138;52.550;13.148;2023-05-29T06:35:19;4.77;;;3.80;;
6209;SDS011;3138;52.550;13.148;2023-05-29T06:37:47;6.73;;;3.80;;
6209;SDS011;3138;52.550;13.148;2023-05-29T06:40:14;5.53;;;3.33;;
6209;SDS011;3138;52.550;13.148;2023-05-29T06:42:41;10.50;;;4.17;;
6209;SDS011;3138;52.550;13.148;2023-05-29T06:45:10;5.20;;;3.70;;
6209;SDS011;3138;52.550;13.148;2023-05-29T06:47:38;6.10;;;3.23;;
6209;SDS011;3138;52.550;13.148;2023-05-29T06:50:06;5.40;;;3.10;;
6209;SDS011;3138;52.550;13.148;2023-05-29T06:52:33;6.53;;;3.43;;
6209;SDS011;3138;52.550;13.148;2023-05-29T06:55:02;7.97;;;3.70;;
6209;SDS011;3138;52.550;13.148;2023-05-29T06:57:29;7.67;;;3.63;;
6209;SDS011;3138;52.550;13.148;2023-05-29T06:59:56;6.07;;;3.57;;
6209;SDS011;3138;52.550;13.148;2023-05-29T07:02:23;8.73;;;3.90;;
6209;SDS011;3138;52.550;13.148;2023-05-29T07:04:49;5.40;;;2.97;;
6209;SDS011;3138;52.550;13.148;2023-05-29T07:07:16;8.10;;;3.93;;
6209;SDS011;3138;52.550;13.148;2023-05-29T07:09:43;5.30;;;3.50;;
6209;SDS011;3138;52.550;13.148;2023-05-29T07:12:11;15.13;;;3.53;;
6209;SDS011;3138;52.550;13.148;2023-05-29T07:14:38;9.50;;;3.30;;
6209;SDS011;3138;52.550;13.148;2023-05-29T07:17:05;6.30;;;3.57;;
6209;SDS011;3138;52.550;13.148;2023-05-29T07:19:32;6.23;;;3.80;;
6209;SDS011;3138;52.550;13.148;2023-05-29T07:21:59;6.33;;;2.80;;
6209;SDS011;3138;52.550;13.148;2023-05-29T07:24:26;9.80;;;3.23;;
6209;SDS011;3138;52.550;13.148;2023-05-29T07:26:53;7.10;;;2.77;;
6209;SDS011;3138;52.550;13.148;2023-05-29T07:29:22;5.37;;;3.00;;
6209;SDS011;3138;52.550;13.148;2023-05-29T07:31:49;2.70;;;2.50;;
6209;SDS011;3138;52.550;13.148;2023-05-29T07:34:16;4.50;;;3.00;;
6209;SDS011;3138;52.550;13.148;2023-05-29T07:36:59;3.47;;;2.60;;
6209;SDS011;3138;52.550;13.148;2023-05-29T07:39:27;6.43;;;2.80;;
6209;SDS011;3138;52.550;13.148;2023-05-29T07:41:54;6.20;;;2.70;;
6209;SDS011;3138;52.550;13.148;2023-05-29T07:44:22;6.83;;;2.90;;
6209;SDS011;3138;52.550;13.148;2023-05-29T07:46:49;3.13;;;2.47;;
6209;SDS011;3138;52.550;13.148;2023-05-29T07:49:16;4.90;;;2.70;;
6209;SDS011;3138;52.550;13.148;2023-05-29T07:51:43;5.53;;;3.33;;
6209;SDS011;3138;52.550;13.148;2023-05-29T07:54:10;2.90;;;2.57;;
6209;SDS011;3138;52.550;13.148;2023-05-29T07:56:37;5.40;;;2.27;;
6209;SDS011;3138;52.550;13.148;2023-05-29T07:59:05;8.37;;;2.87;;
6209;SDS011;3138;52.550;13.148;2023-05-29T08:01:35;4.63;;;2.80;;
6209;SDS011;3138;52.550;13.148;2023-05-29T08:04:04;2.97;;;2.67;;
6209;SDS011;3138;52.550;13.148;2023-05-29T08:06:31;8.60;;;3.10;;
6209;SDS011;3138;52.550;13.148;2023-05-29T08:08:59;3.87;;;3.03;;
6209;SDS011;3138;52.550;13.148;2023-05-29T08:11:26;7.37;;;3.10;;
6209;SDS011;3138;52.550;13.148;2023-05-29T08:13:53;6.17;;;2.30;;
6209;SDS011;3138;52.550;13.148;2023-05-29T08:16:20;5.30;;;2.30;;
6209;SDS011;3138;52.550;13.148;2023-05-29T08:18:48;7.27;;;2.50;;
6209;SDS011;3138;52.550;13.148;2023-05-29T08:21:15;3.80;;;2.37;;
6209;SDS011;3138;52.550;13.148;2023-05-29T08:23:42;2.83;;;2.20;;
6209;SDS011;3138;52.550;13.148;2023-05-29T08:26:09;3.63;;;1.87;;
6209;SDS011;3138;52.550;13.148;2023-05-29T08:28:37;4.97;;;2.50;;
6209;SDS011;3138;52.550;13.148;2023-05-29T08:31:04;4.40;;;2.60;;
6209;SDS011;3138;52.550;13.148;2023-05-29T08:33:31;5.03;;;3.40;;
6209;SDS011;3138;52.550;13.148;2023-05-29T08:35:59;4.77;;;3.07;;
6209;SDS011;3138;52.550;13.148;2023-05-29T08:38:29;6.57;;;2.67;;
6209;SDS011;3138;52.550;13.148;2023-05-29T08:40:56;4.10;;;2.00;;
6209;SDS011;3138;52.550;13.148;2023-05-29T08:43:23;4.40;;;2.57;;
6209;SDS011;3138;52.550;13.148;2023-05-29T08:45:52;3.40;;;2.43;;
6209;SDS011;3138;52.550;13.148;2023-05-29T08:48:22;3.50;;;2.10;;
6209;SDS011;3138;52.550;13.148;2023-05-29T08:50:51;3.40;;;2.80;;
6209;SDS011;3138;52.550;13.148;2023-05-29T08:53:21;4.80;;;3.43;;
6209;SDS011;3138;52.550;13.148;2023-05-29T08:55:49;7.93;;;2.83;;
6209;SDS011;3138;52.550;13.148;2023-05-29T08:58:18;4.90;;;2.70;;
6209;SDS011;3138;52.550;13.148;2023-05-29T09:00:47;5.70;;;3.20;;
6209;SDS011;3138;52.550;13.148;2023-05-29T09:03:15;4.23;;;2.63;;
6209;SDS011;3138;52.550;13.148;2023-05-29T09:05:42;4.67;;;2.93;;
6209;SDS011;3138;52.550;13.148;2023-05-29T09:08:10;6.60;;;3.00;;
6209;SDS011;3138;52.550;13.148;2023-05-29T09:10:39;7.10;;;3.00;;
6209;SDS011;3138;52.550;13.148;2023-05-29T09:13:08;7.17;;;3.50;;
6209;SDS011;3138;52.550;13.148;2023-05-29T09:15:36;3.93;;;2.47;;
6209;SDS011;3138;52.550;13.148;2023-05-29T09:18:05;7.03;;;3.20;;
6209;SDS011;3138;52.550;13.148;2023-05-29T09:20:32;6.33;;;3.23;;
6209;SDS011;3138;52.550;13.148;2023-05-29T09:23:02;7.07;;;2.90;;
6209;SDS011;3138;52.550;13.148;2023-05-29T09:25:30;5.53;;;3.10;;
6209;SDS011;3138;52.550;13.148;2023-05-29T09:28:00;5.67;;;3.20;;
6209;SDS011;3138;52.550;13.148;2023-05-29T09:30:34;5.97;;;3.33;;
6209;SDS011;3138;52.550;13.148;2023-05-29T09:33:02;10.50;;;2.73;;
6209;SDS011;3138;52.550;13.148;2023-05-29T09:35:34;8.43;;;3.70;;
6209;SDS011;3138;52.550;13.148;2023-05-29T09:38:02;6.30;;;4.07;;
6209;SDS011;3138;52.550;13.148;2023-05-29T09:40:30;9.47;;;3.47;;
6209;SDS011;3138;52.550;13.148;2023-05-29T09:43:11;10.13;;;3.57;;
6209;SDS011;3138;52.550;13.148;2023-05-29T09:45:39;7.00;;;3.27;;
6209;SDS011;3138;52.550;13.148;2023-05-29T09:48:12;8.47;;;3.90;;
6209;SDS011;3138;52.550;13.148;2023-05-29T09:50:40;8.23;;;4.33;;
6209;SDS011;3138;52.550;13.148;2023-05-29T09:53:19;5.37;;;3.90;;
6209;SDS011;3138;52.550;13.148;2023-05-29T09:55:49;11.53;;;2.90;;
6209;SDS011;3138;52.550;13.148;2023-05-29T09:58:18;4.63;;;3.20;;
6209;SDS011;3138;52.550;13.148;2023-05-29T10:00:45;19.17;;;4.30;;
6209;SDS011;3138;52.550;13.148;2023-05-29T10:03:13;8.80;;;3.13;;
6209;SDS011;3138;52.550;13.148;2023-05-29T10:05:40;7.70;;;4.10;;
6209;SDS011;3138;52.550;13.148;2023-05-29T10:08:08;8.53;;;3.70;;
6209;SDS011;3138;52.550;13.148;2023-05-29T10:10:39;27.23;;;4.00;;
6209;SDS011;3138;52.550;13.148;2023-05-29T10:13:10;5.33;;;3.93;;
6209;SDS011;3138;52.550;13.148;2023-05-29T10:15:40;24.53;;;4.07;;
6209;SDS011;3138;52.550;13.148;2023-05-29T10:18:11;7.30;;;3.57;;
6209;SDS011;3138;52.550;13.148;2023-05-29T10:20:44;7.20;;;3.53;;
6209;SDS011;3138;52.550;13.148;2023-05-29T10:23:15;8.00;;;4.00;;
6209;SDS011;3138;52.550;13.148;2023-05-29T10:25:42;7.67;;;3.70;;
6209;SDS011;3138;52.550;13.148;2023-05-29T10:28:12;8.70;;;3.77;;
6209;SDS011;3138;52.550;13.148;2023-05-29T10:30:43;3.07;;;2.43;;
6209;SDS011;3138;52.550;13.148;2023-05-29T10:33:30;5.97;;;3.13;;
6209;SDS011;3138;52.550;13.148;2023-05-29T10:36:14;3.57;;;2.97;;
6209;SDS011;3138;52.550;13.148;2023-05-29T10:38:46;4.67;;;2.93;;
6209;SDS011;3138;52.550;13.148;2023-05-29T10:43:58;4.77;;;3.60;;
6209;SDS011;3138;52.550;13.148;2023-05-29T10:49:26;8.40;;;3.23;;
6209;SDS011;3138;52.550;13.148;2023-05-29T10:51:53;10.23;;;3.40;;
6209;SDS011;3138;52.550;13.148;2023-05-29T10:54:21;11.47;;;3.67;;
6209;SDS011;3138;52.550;13.148;2023-05-29T10:56:51;4.00;;;3.60;;
6209;SDS011;3138;52.550;13.148;2023-05-29T10:59:20;3.70;;;2.97;;
6209;SDS011;3138;52.550;13.148;2023-05-29T11:01:51;12.50;;;3.50;;
6209;SDS011;3138;52.550;13.148;2023-05-29T11:04:26;4.50;;;3.00;;
6209;SDS011;3138;52.550;13.148;2023-05-29T11:06:56;4.17;;;2.47;;
6209;SDS011;3138;52.550;13.148;2023-05-29T11:09:27;12.50;;;3.70;;
6209;SDS011;3138;52.550;13.148;2023-05-29T11:14:53;6.43;;;3.80;;
6209;SDS011;3138;52.550;13.148;2023-05-29T11:17:31;6.80;;;3.53;;
6209;SDS011;3138;52.550;13.148;2023-05-29T11:20:02;12.33;;;3.50;;
6209;SDS011;3138;52.550;13.148;2023-05-29T11:22:34;6.83;;;3.60;;
6209;SDS011;3138;52.550;13.148;2023-05-29T11:25:20;7.70;;;3.67;;
6209;SDS011;3138;52.550;13.148;2023-05-29T11:27:47;5.53;;;3.07;;
6209;SDS011;3138;52.550;13.148;2023-05-29T11:30:15;6.10;;;3.00;;
6209;SDS011;3138;52.550;13.148;2023-05-29T11:32:42;10.87;;;3.40;;
6209;SDS011;3138;52.550;13.148;2023-05-29T11:35:13;4.13;;;3.00;;
6209;SDS011;3138;52.550;13.148;2023-05-29T11:37:40;15.17;;;3.67;;
6209;SDS011;3138;52.550;13.148;2023-05-29T11:40:11;4.13;;;3.83;;
6209;SDS011;3138;52.550;13.148;2023-05-29T11:42:40;4.63;;;3.13;;
6209;SDS011;3138;52.550;13.148;2023-05-29T11:45:13;11.03;;;3.40;;
6209;SDS011;3138;52.550;13.148;2023-05-29T11:47:53;9.03;;;3.47;;
6209;SDS011;3138;52.550;13.148;2023-05-29T11:50:22;5.77;;;3.37;;
6209;SDS011;3138;52.550;13.148;2023-05-29T11:52:50;14.10;;;3.83;;
6209;SDS011;3138;52.550;13.148;2023-05-29T11:55:17;7.50;;;3.03;;
6209;SDS011;3138;52.550;13.148;2023-05-29T11:57:45;6.70;;;3.40;;
6209;SDS011;3138;52.550;13.148;2023-05-29T12:00:13;7.33;;;3.63;;
6209;SDS011;3138;52.550;13.148;2023-05-29T12:02:44;6.27;;;3.60;;
6209;SDS011;3138;52.550;13.148;2023-05-29T12:05:12;12.13;;;3.23;;
6209;SDS011;3138;52.550;13.148;2023-05-29T12:07:47;7.40;;;3.10;;
6209;SDS011;3138;52.550;13.148;2023-05-29T12:10:15;9.60;;;3.40;;
6209;SDS011;3138;52.550;13.148;2023-05-29T12:12:46;5.33;;;3.60;;
6209;SDS011;3138;52.550;13.148;2023-05-29T12:15:17;6.60;;;3.53;;
6209;SDS011;3138;52.550;13.148;2023-05-29T12:17:45;7.80;;;3.60;;
6209;SDS011;3138;52.550;13.148;2023-05-29T12:20:12;6.33;;;3.70;;
6209;SDS011;3138;52.550;13.148;2023-05-29T12:22:40;8.10;;;4.03;;
6209;SDS011;3138;52.550;13.148;2023-05-29T12:25:10;7.77;;;3.13;;
6209;SDS011;3138;52.550;13.148;2023-05-29T12:27:39;6.30;;;3.50;;
6209;SDS011;3138;52.550;13.148;2023-05-29T12:30:12;9.27;;;3.73;;
6209;SDS011;3138;52.550;13.148;2023-05-29T12:32:40;12.47;;;3.97;;
6209;SDS011;3138;52.550;13.148;2023-05-29T12:35:15;5.10;;;3.80;;
6209;SDS011;3138;52.550;13.148;2023-05-29T12:37:44;17.00;;;4.83;;
6209;SDS011;3138;52.550;13.148;2023-05-29T12:40:18;10.83;;;3.70;;
6209;SDS011;3138;52.550;13.148;2023-05-29T12:42:46;10.67;;;3.90;;
6209;SDS011;3138;52.550;13.148;2023-05-29T12:45:14;7.20;;;3.67;;
6209;SDS011;3138;52.550;13.148;2023-05-29T12:47:50;14.67;;;3.43;;
6209;SDS011;3138;52.550;13.148;2023-05-29T12:50:19;8.93;;;2.80;;
6209;SDS011;3138;52.550;13.148;2023-05-29T12:52:57;9.17;;;3.70;;
6209;SDS011;3138;52.550;13.148;2023-05-29T12:55:26;7.17;;;2.83;;
6209;SDS011;3138;52.550;13.148;2023-05-29T12:57:54;7.93;;;3.37;;
6209;SDS011;3138;52.550;13.148;2023-05-29T13:00:21;6.67;;;3.77;;
6209;SDS011;3138;52.550;13.148;2023-05-29T13:02:48;8.77;;;2.80;;
6209;SDS011;3138;52.550;13.148;2023-05-29T13:05:16;5.50;;;2.77;;
6209;SDS011;3138;52.550;13.148;2023-05-29T13:07:48;15.17;;;3.53;;
6209;SDS011;3138;52.550;13.148;2023-05-29T13:10:17;7.77;;;3.33;;
6209;SDS011;3138;52.550;13.148;2023-05-29T13:12:45;7.43;;;3.37;;
6209;SDS011;3138;52.550;13.148;2023-05-29T13:15:13;12.57;;;3.20;;
6209;SDS011;3138;52.550;13.148;2023-05-29T13:17:40;10.10;;;3.00;;
6209;SDS011;3138;52.550;13.148;2023-05-29T13:20:08;8.13;;;3.83;;
6209;SDS011;3138;52.550;13.148;2023-05-29T13:22:36;6.50;;;3.30;;
6209;SDS011;3138;52.550;13.148;2023-05-29T13:25:04;5.97;;;3.03;;
6209;SDS011;3138;52.550;13.148;2023-05-29T13:27:32;9.73;;;3.20;;
6209;SDS011;3138;52.550;13.148;2023-05-29T13:30:02;7.23;;;3.50;;
6209;SDS011;3138;52.550;13.148;2023-05-29T13:32:31;5.80;;;2.90;;
6209;SDS011;3138;52.550;13.148;2023-05-29T13:34:58;5.23;;;3.10;;
6209;SDS011;3138;52.550;13.148;2023-05-29T13:37:25;9.63;;;3.97;;
6209;SDS011;3138;52.550;13.148;2023-05-29T13:39:53;8.20;;;4.27;;
6209;SDS011;3138;52.550;13.148;2023-05-29T13:42:20;15.70;;;3.87;;
6209;SDS011;3138;52.550;13.148;2023-05-29T13:44:47;8.10;;;3.60;;
6209;SDS011;3138;52.550;13.148;2023-05-29T13:47:16;5.47;;;2.73;;
6209;SDS011;3138;52.550;13.148;2023-05-29T13:49:43;8.77;;;3.57;;
6209;SDS011;3138;52.550;13.148;2023-05-29T13:52:10;13.73;;;3.53;;
6209;SDS011;3138;52.550;13.148;2023-05-29T13:54:38;14.00;;;3.97;;
6209;SDS011;3138;52.550;13.148;2023-05-29T13:57:05;9.30;;;3.70;;
6209;SDS011;3138;52.550;13.148;2023-05-29T13:59:33;12.67;;;3.47;;
6209;SDS011;3138;52.550;13.148;2023-05-29T14:02:01;9.30;;;3.00;;
6209;SDS011;3138;52.550;13.148;2023-05-29T14:04:30;8.10;;;3.80;;
6209;SDS011;3138;52.550;13.148;2023-05-29T14:06:57;16.47;;;2.63;;
6209;SDS011;3138;52.550;13.148;2023-05-29T14:09:23;14.17;;;3.60;;
6209;SDS011;3138;52.550;13.148;2023-05-29T14:11:52;11.77;;;3.60;;
6209;SDS011;3138;52.550;13.148;2023-05-29T14:14:20;19.67;;;3.27;;
6209;SDS011;3138;52.550;13.148;2023-05-29T14:16:47;7.63;;;2.83;;
6209;SDS011;3138;52.550;13.148;2023-05-29T14:19:14;8.30;;;4.00;;
6209;SDS011;3138;52.550;13.148;2023-05-29T14:21:43;11.70;;;2.83;;
6209;SDS011;3138;52.550;13.148;2023-05-29T14:24:10;7.50;;;3.43;;
6209;SDS011;3138;52.550;13.148;2023-05-29T14:26:38;5.23;;;2.50;;
6209;SDS011;3138;52.550;13.148;2023-05-29T14:29:04;3.60;;;2.70;;
6209;SDS011;3138;52.550;13.148;2023-05-29T14:31:31;4.03;;;2.50;;
6209;SDS011;3138;52.550;13.148;2023-05-29T14:33:58;7.87;;;2.83;;
6209;SDS011;3138;52.550;13.148;2023-05-29T14:36:25;9.87;;;2.83;;
6209;SDS011;3138;52.550;13.148;2023-05-29T14:38:53;9.20;;;2.63;;
6209;SDS011;3138;52.550;13.148;2023-05-29T14:41:20;10.87;;;2.60;;
6209;SDS011;3138;52.550;13.148;2023-05-29T14:43:47;7.90;;;2.80;;
6209;SDS011;3138;52.550;13.148;2023-05-29T14:46:14;4.97;;;2.90;;
6209;SDS011;3138;52.550;13.148;2023-05-29T14:48:41;9.53;;;3.20;;
6209;SDS011;3138;52.550;13.148;2023-05-29T14:51:08;5.93;;;2.73;;
6209;SDS011;3138;52.550;13.148;2023-05-29T14:53:35;12.73;;;3.17;;
6209;SDS011;3138;52.550;13.148;2023-05-29T14:56:04;13.10;;;2.90;;
6209;SDS011;3138;52.550;13.148;2023-05-29T14:58:31;6.10;;;2.60;;
6209;SDS011;3138;52.550;13.148;2023-05-29T15:00:58;6.57;;;2.57;;
6209;SDS011;3138;52.550;13.148;2023-05-29T15:03:25;7.00;;;2.87;;
6209;SDS011;3138;52.550;13.148;2023-05-29T15:05:53;24.27;;;3.10;;
6209;SDS011;3138;52.550;13.148;2023-05-29T15:08:20;8.17;;;3.17;;
6209;SDS011;3138;52.550;13.148;2023-05-29T15:10:47;7.80;;;2.30;;